sensor_id;sensor_type;location;lat;lon;timestamp;temperature;humidity
25550;DHT22;13444;50.562;7.262;2022-08-19T00:01:12;19.30;99.90
25550;DHT22;13444;50.562;7.262;2022-08-19T00:03:38;19.30;99.90
25550;DHT22;13444;50.562;7.262;2022-08-19T00:06:04;19.20;99.90
25550;DHT22;13444;50.562;7.262;2022-08-19T00:08:30;19.20;99.90
25550;DHT22;13444;50.562;7.262;2022-08-19T00:10:56;19.20;99.90
25550;DHT22;13444;50.562;7.262;2022-08-19T00:13:22;19.10;99.90
25550;DHT22;13444;50.562;7.262;2022-08-19T00:15:47;19.10;99.90
25550;DHT22;13444;50.562;7.262;2022-08-19T00:18:13;19.10;99.90
25550;DHT22;13444;50.562;7.262;2022-08-19T00:20:38;19.10;99.90
25550;DHT22;13444;50.562;7.262;2022-08-19T00:23:06;19.10;99.90
25550;DHT22;13444;50.562;7.262;2022-08-19T00:25:31;19.00;99.90
25550;DHT22;13444;50.562;7.262;2022-08-19T00:27:58;19.10;99.90
25550;DHT22;13444;50.562;7.262;2022-08-19T00:30:25;19.00;99.90
25550;DHT22;13444;50.562;7.262;2022-08-19T00:32:53;19.00;99.90
25550;DHT22;13444;50.562;7.262;2022-08-19T00:35:20;18.90;99.90
25550;DHT22;13444;50.562;7.262;2022-08-19T00:37:47;18.90;99.90
25550;DHT22;13444;50.562;7.262;2022-08-19T00:40:14;18.90;99.90
25550;DHT22;13444;50.562;7.262;2022-08-19T00:42:40;18.90;99.90
25550;DHT22;13444;50.562;7.262;2022-08-19T00:45:12;18.80;99.90
25550;DHT22;13444;50.562;7.262;2022-08-19T00:47:39;18.80;99.90
25550;DHT22;13444;50.562;7.262;2022-08-19T00:50:06;18.80;99.90
25550;DHT22;13444;50.562;7.262;2022-08-19T00:52:35;18.80;99.90
25550;DHT22;13444;50.562;7.262;2022-08-19T00:55:03;18.80;99.90
25550;DHT22;13444;50.562;7.262;2022-08-19T00:57:35;18.70;99.90
25550;DHT22;13444;50.562;7.262;2022-08-19T01:00:06;18.70;99.90
25550;DHT22;13444;50.562;7.262;2022-08-19T01:02:34;18.70;99.90
25550;DHT22;13444;50.562;7.262;2022-08-19T01:05:03;18.70;99.90
25550;DHT22;13444;50.562;7.262;2022-08-19T01:07:29;18.70;99.90
25550;DHT22;13444;50.562;7.262;2022-08-19T01:09:55;18.70;99.90
25550;DHT22;13444;50.562;7.262;2022-08-19T01:12:21;18.70;99.90
25550;DHT22;13444;50.562;7.262;2022-08-19T01:14:47;18.70;99.90
25550;DHT22;13444;50.562;7.262;2022-08-19T01:17:15;18.60;99.90
25550;DHT22;13444;50.562;7.262;2022-08-19T01:19:42;18.60;99.90
25550;DHT22;13444;50.562;7.262;2022-08-19T01:22:10;18.60;99.90
25550;DHT22;13444;50.562;7.262;2022-08-19T01:24:37;18.50;99.90
25550;DHT22;13444;50.562;7.262;2022-08-19T01:27:07;18.50;99.90
25550;DHT22;13444;50.562;7.262;2022-08-19T01:29:33;18.50;99.90
25550;DHT22;13444;50.562;7.262;2022-08-19T01:32:00;18.50;99.90
25550;DHT22;13444;50.562;7.262;2022-08-19T01:34:26;18.40;99.90
25550;DHT22;13444;50.562;7.262;2022-08-19T01:36:52;18.40;99.90
25550;DHT22;13444;50.562;7.262;2022-08-19T01:39:23;18.30;99.90
25550;DHT22;13444;50.562;7.262;2022-08-19T01:41:49;18.30;99.90
25550;DHT22;13444;50.562;7.262;2022-08-19T01:44:16;18.30;99.90
25550;DHT22;13444;50.562;7.262;2022-08-19T01:46:43;18.30;99.90
25550;DHT22;13444;50.562;7.262;2022-08-19T01:49:09;18.30;99.90
25550;DHT22;13444;50.562;7.262;2022-08-19T01:51:36;18.30;99.90
25550;DHT22;13444;50.562;7.262;2022-08-19T01:54:01;18.30;99.90
25550;DHT22;13444;50.562;7.262;2022-08-19T01:56:27;18.30;99.90
25550;DHT22;13444;50.562;7.262;2022-08-19T01:59:00;18.30;99.90
25550;DHT22;13444;50.562;7.262;2022-08-19T02:01:26;18.30;99.90
25550;DHT22;13444;50.562;7.262;2022-08-19T02:03:52;18.30;99.90
25550;DHT22;13444;50.562;7.262;2022-08-19T02:06:18;18.30;99.90
25550;DHT22;13444;50.562;7.262;2022-08-19T02:08:44;18.20;99.90
25550;DHT22;13444;50.562;7.262;2022-08-19T02:11:19;18.20;99.90
25550;DHT22;13444;50.562;7.262;2022-08-19T02:13:46;18.20;99.90
25550;DHT22;13444;50.562;7.262;2022-08-19T02:16:11;18.20;99.90
25550;DHT22;13444;50.562;7.262;2022-08-19T02:18:37;18.20;99.90
25550;DHT22;13444;50.562;7.262;2022-08-19T02:21:02;18.20;99.90
25550;DHT22;13444;50.562;7.262;2022-08-19T02:23:28;18.10;99.90
25550;DHT22;13444;50.562;7.262;2022-08-19T02:25:53;18.10;99.90
25550;DHT22;13444;50.562;7.262;2022-08-19T02:28:19;18.10;99.90
25550;DHT22;13444;50.562;7.262;2022-08-19T02:30:45;18.00;99.90
25550;DHT22;13444;50.562;7.262;2022-08-19T02:33:10;18.00;99.90
25550;DHT22;13444;50.562;7.262;2022-08-19T02:35:36;18.00;99.90
25550;DHT22;13444;50.562;7.262;2022-08-19T02:38:01;18.00;99.90
25550;DHT22;13444;50.562;7.262;2022-08-19T02:40:50;18.00;99.90
25550;DHT22;13444;50.562;7.262;2022-08-19T02:43:17;18.00;99.90
25550;DHT22;13444;50.562;7.262;2022-08-19T02:45:43;18.00;99.90
25550;DHT22;13444;50.562;7.262;2022-08-19T02:48:09;18.00;99.90
25550;DHT22;13444;50.562;7.262;2022-08-19T02:50:38;18.00;99.90
25550;DHT22;13444;50.562;7.262;2022-08-19T02:53:04;18.00;99.90
25550;DHT22;13444;50.562;7.262;2022-08-19T02:55:29;18.00;99.90
25550;DHT22;13444;50.562;7.262;2022-08-19T02:57:55;18.00;99.90
25550;DHT22;13444;50.562;7.262;2022-08-19T03:00:22;18.00;99.90
25550;DHT22;13444;50.562;7.262;2022-08-19T03:02:49;18.00;99.90
25550;DHT22;13444;50.562;7.262;2022-08-19T03:05:15;17.90;99.90
25550;DHT22;13444;50.562;7.262;2022-08-19T03:07:41;17.90;99.90
25550;DHT22;13444;50.562;7.262;2022-08-19T03:10:07;17.90;99.90
25550;DHT22;13444;50.562;7.262;2022-08-19T03:12:36;17.90;99.90
25550;DHT22;13444;50.562;7.262;2022-08-19T03:15:06;17.90;99.90
25550;DHT22;13444;50.562;7.262;2022-08-19T03:17:33;17.90;99.90
25550;DHT22;13444;50.562;7.262;2022-08-19T03:19:59;17.90;99.90
25550;DHT22;13444;50.562;7.262;2022-08-19T03:22:24;17.80;99.90
25550;DHT22;13444;50.562;7.262;2022-08-19T03:24:50;17.80;99.90
25550;DHT22;13444;50.562;7.262;2022-08-19T03:27:16;17.70;99.90
25550;DHT22;13444;50.562;7.262;2022-08-19T03:29:43;17.70;99.90
25550;DHT22;13444;50.562;7.262;2022-08-19T03:32:09;17.70;99.90
25550;DHT22;13444;50.562;7.262;2022-08-19T03:34:36;17.70;99.90
25550;DHT22;13444;50.562;7.262;2022-08-19T03:37:08;17.80;99.90
25550;DHT22;13444;50.562;7.262;2022-08-19T03:39:36;17.70;99.90
25550;DHT22;13444;50.562;7.262;2022-08-19T03:42:02;17.70;99.90
25550;DHT22;13444;50.562;7.262;2022-08-19T03:44:29;17.70;99.90
25550;DHT22;13444;50.562;7.262;2022-08-19T03:46:57;17.70;99.90
25550;DHT22;13444;50.562;7.262;2022-08-19T03:49:25;17.70;99.90
25550;DHT22;13444;50.562;7.262;2022-08-19T03:51:53;17.60;99.90
25550;DHT22;13444;50.562;7.262;2022-08-19T03:54:20;17.60;99.90
25550;DHT22;13444;50.562;7.262;2022-08-19T03:56:49;17.50;99.90
25550;DHT22;13444;50.562;7.262;2022-08-19T03:59:19;17.50;99.90
25550;DHT22;13444;50.562;7.262;2022-08-19T04:01:45;17.60;99.90
25550;DHT22;13444;50.562;7.262;2022-08-19T04:04:11;17.50;99.90
25550;DHT22;13444;50.562;7.262;2022-08-19T04:06:37;17.50;99.90
25550;DHT22;13444;50.562;7.262;2022-08-19T04:09:05;17.50;99.90
25550;DHT22;13444;50.562;7.262;2022-08-19T04:11:36;17.50;99.90
25550;DHT22;13444;50.562;7.262;2022-08-19T04:14:06;17.50;99.90
25550;DHT22;13444;50.562;7.262;2022-08-19T04:16:33;17.50;99.90
25550;DHT22;13444;50.562;7.262;2022-08-19T04:19:03;17.40;99.90
25550;DHT22;13444;50.562;7.262;2022-08-19T04:21:29;17.40;99.90
25550;DHT22;13444;50.562;7.262;2022-08-19T04:23:56;17.40;99.90
25550;DHT22;13444;50.562;7.262;2022-08-19T04:26:28;17.30;99.90
25550;DHT22;13444;50.562;7.262;2022-08-19T04:28:56;17.30;99.90
25550;DHT22;13444;50.562;7.262;2022-08-19T04:31:24;17.30;99.90
25550;DHT22;13444;50.562;7.262;2022-08-19T04:33:54;17.30;99.90
25550;DHT22;13444;50.562;7.262;2022-08-19T04:36:24;17.30;99.90
25550;DHT22;13444;50.562;7.262;2022-08-19T04:38:52;17.30;99.90
25550;DHT22;13444;50.562;7.262;2022-08-19T04:41:18;17.30;99.90
25550;DHT22;13444;50.562;7.262;2022-08-19T04:44:02;17.20;99.90
25550;DHT22;13444;50.562;7.262;2022-08-19T04:46:28;17.20;99.90
25550;DHT22;13444;50.562;7.262;2022-08-19T04:48:55;17.20;99.90
25550;DHT22;13444;50.562;7.262;2022-08-19T04:51:22;17.20;99.90
25550;DHT22;13444;50.562;7.262;2022-08-19T04:53:48;17.20;99.90
25550;DHT22;13444;50.562;7.262;2022-08-19T04:56:16;17.30;99.90
25550;DHT22;13444;50.562;7.262;2022-08-19T04:58:43;17.30;99.90
25550;DHT22;13444;50.562;7.262;2022-08-19T05:01:24;17.30;99.90
25550;DHT22;13444;50.562;7.262;2022-08-19T05:03:49;17.30;99.90
25550;DHT22;13444;50.562;7.262;2022-08-19T05:06:16;17.30;99.90
25550;DHT22;13444;50.562;7.262;2022-08-19T05:08:43;17.40;99.90
25550;DHT22;13444;50.562;7.262;2022-08-19T05:11:18;17.40;99.90
25550;DHT22;13444;50.562;7.262;2022-08-19T05:13:45;17.50;99.90
25550;DHT22;13444;50.562;7.262;2022-08-19T05:16:12;17.40;99.90
25550;DHT22;13444;50.562;7.262;2022-08-19T05:18:39;17.40;99.90
25550;DHT22;13444;50.562;7.262;2022-08-19T05:21:24;17.40;99.90
25550;DHT22;13444;50.562;7.262;2022-08-19T05:24:09;17.50;99.90
25550;DHT22;13444;50.562;7.262;2022-08-19T05:26:36;17.50;99.90
25550;DHT22;13444;50.562;7.262;2022-08-19T05:29:03;17.60;99.90
25550;DHT22;13444;50.562;7.262;2022-08-19T05:31:29;17.70;99.90
25550;DHT22;13444;50.562;7.262;2022-08-19T05:33:55;17.70;99.90
25550;DHT22;13444;50.562;7.262;2022-08-19T05:36:21;17.80;99.90
25550;DHT22;13444;50.562;7.262;2022-08-19T05:38:46;17.90;99.90
25550;DHT22;13444;50.562;7.262;2022-08-19T05:41:14;18.00;99.90
25550;DHT22;13444;50.562;7.262;2022-08-19T05:43:40;18.00;99.90
25550;DHT22;13444;50.562;7.262;2022-08-19T05:46:07;18.10;99.90
25550;DHT22;13444;50.562;7.262;2022-08-19T05:48:34;18.20;99.90
25550;DHT22;13444;50.562;7.262;2022-08-19T05:51:05;18.30;99.90
25550;DHT22;13444;50.562;7.262;2022-08-19T05:53:32;18.40;99.90
25550;DHT22;13444;50.562;7.262;2022-08-19T05:56:04;18.50;99.90
25550;DHT22;13444;50.562;7.262;2022-08-19T05:58:30;18.50;99.90
25550;DHT22;13444;50.562;7.262;2022-08-19T06:00:57;18.70;99.90
25550;DHT22;13444;50.562;7.262;2022-08-19T06:03:23;18.80;99.90
25550;DHT22;13444;50.562;7.262;2022-08-19T06:05:49;18.90;99.90
25550;DHT22;13444;50.562;7.262;2022-08-19T06:08:14;19.00;99.90
25550;DHT22;13444;50.562;7.262;2022-08-19T06:10:40;19.00;99.90
25550;DHT22;13444;50.562;7.262;2022-08-19T06:13:06;19.10;99.90
25550;DHT22;13444;50.562;7.262;2022-08-19T06:15:31;19.20;99.90
25550;DHT22;13444;50.562;7.262;2022-08-19T06:17:57;19.20;99.90
25550;DHT22;13444;50.562;7.262;2022-08-19T06:20:22;19.30;99.90
25550;DHT22;13444;50.562;7.262;2022-08-19T06:22:48;19.40;99.90
25550;DHT22;13444;50.562;7.262;2022-08-19T06:25:16;19.40;99.90
25550;DHT22;13444;50.562;7.262;2022-08-19T06:27:43;19.50;99.90
25550;DHT22;13444;50.562;7.262;2022-08-19T06:30:09;19.50;99.90
25550;DHT22;13444;50.562;7.262;2022-08-19T06:32:36;19.60;99.90
25550;DHT22;13444;50.562;7.262;2022-08-19T06:35:03;19.60;99.90
25550;DHT22;13444;50.562;7.262;2022-08-19T06:37:28;19.70;99.90
25550;DHT22;13444;50.562;7.262;2022-08-19T06:39:54;19.80;99.90
25550;DHT22;13444;50.562;7.262;2022-08-19T06:42:19;19.80;99.90
25550;DHT22;13444;50.562;7.262;2022-08-19T06:44:47;19.90;99.90
25550;DHT22;13444;50.562;7.262;2022-08-19T06:47:17;19.90;99.90
25550;DHT22;13444;50.562;7.262;2022-08-19T06:49:43;20.00;99.90
25550;DHT22;13444;50.562;7.262;2022-08-19T06:52:10;20.20;99.90
25550;DHT22;13444;50.562;7.262;2022-08-19T06:54:40;20.40;99.90
25550;DHT22;13444;50.562;7.262;2022-08-19T06:57:07;20.60;99.90
25550;DHT22;13444;50.562;7.262;2022-08-19T06:59:34;20.80;99.90
25550;DHT22;13444;50.562;7.262;2022-08-19T07:02:03;20.80;99.90
25550;DHT22;13444;50.562;7.262;2022-08-19T07:04:33;20.90;99.90
25550;DHT22;13444;50.562;7.262;2022-08-19T07:07:08;20.90;99.90
25550;DHT22;13444;50.562;7.262;2022-08-19T07:09:37;20.90;99.90
25550;DHT22;13444;50.562;7.262;2022-08-19T07:12:06;21.00;99.90
25550;DHT22;13444;50.562;7.262;2022-08-19T07:14:33;21.10;99.90
25550;DHT22;13444;50.562;7.262;2022-08-19T07:17:07;21.30;99.90
25550;DHT22;13444;50.562;7.262;2022-08-19T07:19:34;21.50;99.90
25550;DHT22;13444;50.562;7.262;2022-08-19T07:22:02;21.50;99.90
25550;DHT22;13444;50.562;7.262;2022-08-19T07:24:29;21.60;99.90
25550;DHT22;13444;50.562;7.262;2022-08-19T07:26:57;21.80;99.90
25550;DHT22;13444;50.562;7.262;2022-08-19T07:29:26;22.00;99.90
25550;DHT22;13444;50.562;7.262;2022-08-19T07:31:53;22.20;99.90
25550;DHT22;13444;50.562;7.262;2022-08-19T07:34:23;22.30;99.90
25550;DHT22;13444;50.562;7.262;2022-08-19T07:36:49;22.50;99.90
25550;DHT22;13444;50.562;7.262;2022-08-19T07:39:19;22.80;99.90
25550;DHT22;13444;50.562;7.262;2022-08-19T07:41:47;23.00;99.90
25550;DHT22;13444;50.562;7.262;2022-08-19T07:44:13;23.10;99.90
25550;DHT22;13444;50.562;7.262;2022-08-19T07:46:42;23.20;99.90
25550;DHT22;13444;50.562;7.262;2022-08-19T07:49:10;23.40;99.90
25550;DHT22;13444;50.562;7.262;2022-08-19T07:51:56;23.70;99.90
25550;DHT22;13444;50.562;7.262;2022-08-19T07:54:24;24.00;99.90
25550;DHT22;13444;50.562;7.262;2022-08-19T07:56:50;24.30;99.90
25550;DHT22;13444;50.562;7.262;2022-08-19T07:59:17;24.60;99.90
25550;DHT22;13444;50.562;7.262;2022-08-19T08:01:43;24.80;99.90
25550;DHT22;13444;50.562;7.262;2022-08-19T08:04:09;25.10;99.90
25550;DHT22;13444;50.562;7.262;2022-08-19T08:06:54;25.30;99.90
25550;DHT22;13444;50.562;7.262;2022-08-19T08:09:41;25.40;99.90
25550;DHT22;13444;50.562;7.262;2022-08-19T08:12:11;25.80;99.90
25550;DHT22;13444;50.562;7.262;2022-08-19T08:14:43;25.90;99.90
25550;DHT22;13444;50.562;7.262;2022-08-19T08:17:10;26.10;99.90
25550;DHT22;13444;50.562;7.262;2022-08-19T08:19:37;26.30;99.90
25550;DHT22;13444;50.562;7.262;2022-08-19T08:22:03;26.40;99.90
25550;DHT22;13444;50.562;7.262;2022-08-19T08:24:31;26.30;99.90
25550;DHT22;13444;50.562;7.262;2022-08-19T08:26:58;26.40;99.90
25550;DHT22;13444;50.562;7.262;2022-08-19T08:29:28;26.60;99.90
25550;DHT22;13444;50.562;7.262;2022-08-19T08:31:55;26.90;99.90
25550;DHT22;13444;50.562;7.262;2022-08-19T08:34:21;27.10;99.90
25550;DHT22;13444;50.562;7.262;2022-08-19T08:36:47;27.20;99.90
25550;DHT22;13444;50.562;7.262;2022-08-19T08:39:18;27.30;99.90
25550;DHT22;13444;50.562;7.262;2022-08-19T08:44:20;27.90;99.90
25550;DHT22;13444;50.562;7.262;2022-08-19T08:46:53;28.20;99.90
25550;DHT22;13444;50.562;7.262;2022-08-19T08:52:21;28.60;99.90
25550;DHT22;13444;50.562;7.262;2022-08-19T08:54:51;28.90;99.90
25550;DHT22;13444;50.562;7.262;2022-08-19T08:57:39;29.10;99.90
25550;DHT22;13444;50.562;7.262;2022-08-19T09:00:18;29.40;99.90
25550;DHT22;13444;50.562;7.262;2022-08-19T09:02:46;29.60;99.90
25550;DHT22;13444;50.562;7.262;2022-08-19T09:05:11;29.80;99.90
25550;DHT22;13444;50.562;7.262;2022-08-19T09:10:49;30.40;99.90
25550;DHT22;13444;50.562;7.262;2022-08-19T09:13:28;30.30;99.90
25550;DHT22;13444;50.562;7.262;2022-08-19T09:16:04;29.90;99.90
25550;DHT22;13444;50.562;7.262;2022-08-19T09:18:46;29.80;99.90
25550;DHT22;13444;50.562;7.262;2022-08-19T09:21:19;29.90;99.90
25550;DHT22;13444;50.562;7.262;2022-08-19T09:23:45;29.70;99.90
25550;DHT22;13444;50.562;7.262;2022-08-19T09:26:14;29.80;99.90
25550;DHT22;13444;50.562;7.262;2022-08-19T09:28:41;30.00;99.90
25550;DHT22;13444;50.562;7.262;2022-08-19T09:31:15;29.80;99.90
25550;DHT22;13444;50.562;7.262;2022-08-19T09:33:40;29.60;99.90
25550;DHT22;13444;50.562;7.262;2022-08-19T09:36:10;29.80;99.90
25550;DHT22;13444;50.562;7.262;2022-08-19T09:38:36;29.80;99.90
25550;DHT22;13444;50.562;7.262;2022-08-19T09:41:04;29.20;99.90
25550;DHT22;13444;50.562;7.262;2022-08-19T09:43:30;29.30;99.90
25550;DHT22;13444;50.562;7.262;2022-08-19T09:45:56;29.60;99.90
25550;DHT22;13444;50.562;7.262;2022-08-19T09:48:22;29.70;99.90
25550;DHT22;13444;50.562;7.262;2022-08-19T09:50:48;29.70;99.90
25550;DHT22;13444;50.562;7.262;2022-08-19T09:53:15;29.60;99.90
25550;DHT22;13444;50.562;7.262;2022-08-19T09:55:44;29.80;99.90
25550;DHT22;13444;50.562;7.262;2022-08-19T09:58:09;30.10;99.90
25550;DHT22;13444;50.562;7.262;2022-08-19T10:00:37;30.50;99.90
25550;DHT22;13444;50.562;7.262;2022-08-19T10:03:03;30.90;99.90
25550;DHT22;13444;50.562;7.262;2022-08-19T10:05:29;31.10;99.90
25550;DHT22;13444;50.562;7.262;2022-08-19T10:08:14;31.00;99.90
25550;DHT22;13444;50.562;7.262;2022-08-19T10:10:43;31.10;99.90
25550;DHT22;13444;50.562;7.262;2022-08-19T10:13:09;31.30;99.90
25550;DHT22;13444;50.562;7.262;2022-08-19T10:15:35;31.30;99.90
25550;DHT22;13444;50.562;7.262;2022-08-19T10:18:01;31.00;99.90
25550;DHT22;13444;50.562;7.262;2022-08-19T10:20:26;30.70;99.90
25550;DHT22;13444;50.562;7.262;2022-08-19T10:22:52;30.60;99.90
25550;DHT22;13444;50.562;7.262;2022-08-19T10:25:17;30.60;99.90
25550;DHT22;13444;50.562;7.262;2022-08-19T10:27:43;30.30;99.90
25550;DHT22;13444;50.562;7.262;2022-08-19T10:30:09;30.10;99.90
25550;DHT22;13444;50.562;7.262;2022-08-19T10:32:36;30.00;99.90
25550;DHT22;13444;50.562;7.262;2022-08-19T10:35:03;29.70;99.90
25550;DHT22;13444;50.562;7.262;2022-08-19T10:37:33;30.10;99.90
25550;DHT22;13444;50.562;7.262;2022-08-19T10:39:59;30.60;99.90
25550;DHT22;13444;50.562;7.262;2022-08-19T10:42:25;31.00;99.90
25550;DHT22;13444;50.562;7.262;2022-08-19T10:44:50;30.90;99.90
25550;DHT22;13444;50.562;7.262;2022-08-19T10:47:16;30.50;99.90
25550;DHT22;13444;50.562;7.262;2022-08-19T10:49:41;30.20;99.90
25550;DHT22;13444;50.562;7.262;2022-08-19T10:52:26;30.00;99.90
25550;DHT22;13444;50.562;7.262;2022-08-19T10:55:02;30.40;99.90
25550;DHT22;13444;50.562;7.262;2022-08-19T10:57:47;30.70;99.90
25550;DHT22;13444;50.562;7.262;2022-08-19T11:00:12;31.30;99.90
25550;DHT22;13444;50.562;7.262;2022-08-19T11:02:38;31.90;99.90
25550;DHT22;13444;50.562;7.262;2022-08-19T11:05:04;32.30;99.90
25550;DHT22;13444;50.562;7.262;2022-08-19T11:07:30;32.20;99.90
25550;DHT22;13444;50.562;7.262;2022-08-19T11:09:56;32.00;99.90
25550;DHT22;13444;50.562;7.262;2022-08-19T11:12:21;32.30;99.90
25550;DHT22;13444;50.562;7.262;2022-08-19T11:14:47;32.70;99.90
25550;DHT22;13444;50.562;7.262;2022-08-19T11:17:15;32.60;99.90
25550;DHT22;13444;50.562;7.262;2022-08-19T11:19:41;32.30;99.90
25550;DHT22;13444;50.562;7.262;2022-08-19T11:22:08;32.10;99.90
25550;DHT22;13444;50.562;7.262;2022-08-19T11:24:35;31.70;99.90
25550;DHT22;13444;50.562;7.262;2022-08-19T11:27:04;31.50;99.90
25550;DHT22;13444;50.562;7.262;2022-08-19T11:29:30;31.50;99.90
25550;DHT22;13444;50.562;7.262;2022-08-19T11:31:56;31.40;99.90
25550;DHT22;13444;50.562;7.262;2022-08-19T11:34:24;31.40;99.90
25550;DHT22;13444;50.562;7.262;2022-08-19T11:36:51;31.80;99.90
25550;DHT22;13444;50.562;7.262;2022-08-19T11:39:20;32.20;99.90
25550;DHT22;13444;50.562;7.262;2022-08-19T11:41:46;32.70;99.90
25550;DHT22;13444;50.562;7.262;2022-08-19T11:44:11;33.20;99.90
25550;DHT22;13444;50.562;7.262;2022-08-19T11:46:40;33.60;99.90
25550;DHT22;13444;50.562;7.262;2022-08-19T11:49:06;33.00;99.90
25550;DHT22;13444;50.562;7.262;2022-08-19T11:51:35;32.90;99.90
25550;DHT22;13444;50.562;7.262;2022-08-19T11:54:01;32.90;99.90
25550;DHT22;13444;50.562;7.262;2022-08-19T11:56:27;32.70;99.90
25550;DHT22;13444;50.562;7.262;2022-08-19T11:58:54;32.70;99.90
25550;DHT22;13444;50.562;7.262;2022-08-19T12:01:23;32.60;99.90
25550;DHT22;13444;50.562;7.262;2022-08-19T12:03:50;32.70;99.90
25550;DHT22;13444;50.562;7.262;2022-08-19T12:06:21;33.00;99.80
25550;DHT22;13444;50.562;7.262;2022-08-19T12:08:49;32.80;99.00
25550;DHT22;13444;50.562;7.262;2022-08-19T12:11:15;32.50;98.90
25550;DHT22;13444;50.562;7.262;2022-08-19T12:13:42;32.20;99.80
25550;DHT22;13444;50.562;7.262;2022-08-19T12:16:12;32.50;99.60
25550;DHT22;13444;50.562;7.262;2022-08-19T12:18:39;32.90;98.80
25550;DHT22;13444;50.562;7.262;2022-08-19T12:21:07;33.00;98.30
25550;DHT22;13444;50.562;7.262;2022-08-19T12:23:33;32.90;98.00
25550;DHT22;13444;50.562;7.262;2022-08-19T12:25:58;32.80;98.30
25550;DHT22;13444;50.562;7.262;2022-08-19T12:28:25;32.40;97.90
25550;DHT22;13444;50.562;7.262;2022-08-19T12:30:50;32.10;98.40
25550;DHT22;13444;50.562;7.262;2022-08-19T12:33:17;31.90;98.70
25550;DHT22;13444;50.562;7.262;2022-08-19T12:35:44;31.70;98.10
25550;DHT22;13444;50.562;7.262;2022-08-19T12:38:12;31.50;98.30
25550;DHT22;13444;50.562;7.262;2022-08-19T12:40:38;31.20;98.50
25550;DHT22;13444;50.562;7.262;2022-08-19T12:43:05;31.30;98.50
25550;DHT22;13444;50.562;7.262;2022-08-19T12:45:31;31.30;98.50
25550;DHT22;13444;50.562;7.262;2022-08-19T12:47:57;31.30;98.40
25550;DHT22;13444;50.562;7.262;2022-08-19T12:50:23;31.10;98.70
25550;DHT22;13444;50.562;7.262;2022-08-19T12:52:49;31.10;98.70
25550;DHT22;13444;50.562;7.262;2022-08-19T12:55:15;31.20;98.90
25550;DHT22;13444;50.562;7.262;2022-08-19T12:57:41;31.20;98.10
25550;DHT22;13444;50.562;7.262;2022-08-19T13:00:09;31.30;98.60
25550;DHT22;13444;50.562;7.262;2022-08-19T13:02:41;31.50;98.20
25550;DHT22;13444;50.562;7.262;2022-08-19T13:05:11;31.60;98.10
25550;DHT22;13444;50.562;7.262;2022-08-19T13:07:38;31.50;98.00
25550;DHT22;13444;50.562;7.262;2022-08-19T13:10:06;31.30;98.00
25550;DHT22;13444;50.562;7.262;2022-08-19T13:12:32;31.20;98.40
25550;DHT22;13444;50.562;7.262;2022-08-19T13:14:57;31.30;98.40
25550;DHT22;13444;50.562;7.262;2022-08-19T13:17:23;31.50;97.90
25550;DHT22;13444;50.562;7.262;2022-08-19T13:19:49;31.50;98.10
25550;DHT22;13444;50.562;7.262;2022-08-19T13:22:15;31.50;98.20
25550;DHT22;13444;50.562;7.262;2022-08-19T13:24:41;31.20;98.30
25550;DHT22;13444;50.562;7.262;2022-08-19T13:27:07;30.90;97.90
25550;DHT22;13444;50.562;7.262;2022-08-19T13:29:32;30.70;98.50
25550;DHT22;13444;50.562;7.262;2022-08-19T13:32:17;30.60;98.80
25550;DHT22;13444;50.562;7.262;2022-08-19T13:35:02;30.50;99.00
25550;DHT22;13444;50.562;7.262;2022-08-19T13:37:28;30.30;99.50
25550;DHT22;13444;50.562;7.262;2022-08-19T13:40:15;30.10;99.50
25550;DHT22;13444;50.562;7.262;2022-08-19T13:42:43;30.10;99.60
25550;DHT22;13444;50.562;7.262;2022-08-19T13:45:10;30.00;99.80
25550;DHT22;13444;50.562;7.262;2022-08-19T13:47:36;30.00;99.80
25550;DHT22;13444;50.562;7.262;2022-08-19T13:50:09;29.90;99.90
25550;DHT22;13444;50.562;7.262;2022-08-19T13:52:36;29.80;99.90
25550;DHT22;13444;50.562;7.262;2022-08-19T13:55:02;29.70;99.90
25550;DHT22;13444;50.562;7.262;2022-08-19T13:57:29;29.70;99.90
25550;DHT22;13444;50.562;7.262;2022-08-19T13:59:56;29.50;99.80
25550;DHT22;13444;50.562;7.262;2022-08-19T14:02:23;29.50;99.90
25550;DHT22;13444;50.562;7.262;2022-08-19T14:04:48;29.70;99.80
25550;DHT22;13444;50.562;7.262;2022-08-19T14:07:14;29.90;99.90
25550;DHT22;13444;50.562;7.262;2022-08-19T14:09:39;30.00;98.70
25550;DHT22;13444;50.562;7.262;2022-08-19T14:12:05;30.10;98.30
25550;DHT22;13444;50.562;7.262;2022-08-19T14:14:30;30.10;98.40
25550;DHT22;13444;50.562;7.262;2022-08-19T14:16:56;30.00;98.60
25550;DHT22;13444;50.562;7.262;2022-08-19T14:19:22;29.90;98.60
25550;DHT22;13444;50.562;7.262;2022-08-19T14:21:47;29.80;98.50
25550;DHT22;13444;50.562;7.262;2022-08-19T14:24:13;29.80;97.70
25550;DHT22;13444;50.562;7.262;2022-08-19T14:26:38;29.80;97.50
25550;DHT22;13444;50.562;7.262;2022-08-19T14:29:04;29.80;97.10
25550;DHT22;13444;50.562;7.262;2022-08-19T14:31:29;29.60;97.60
25550;DHT22;13444;50.562;7.262;2022-08-19T14:33:55;29.40;96.80
25550;DHT22;13444;50.562;7.262;2022-08-19T14:36:21;29.40;97.00
25550;DHT22;13444;50.562;7.262;2022-08-19T14:38:47;29.40;96.70
25550;DHT22;13444;50.562;7.262;2022-08-19T14:41:22;29.40;96.50
25550;DHT22;13444;50.562;7.262;2022-08-19T14:43:50;29.40;96.10
25550;DHT22;13444;50.562;7.262;2022-08-19T14:46:21;29.40;95.70
25550;DHT22;13444;50.562;7.262;2022-08-19T14:48:48;29.20;95.50
25550;DHT22;13444;50.562;7.262;2022-08-19T14:51:14;29.20;96.10
25550;DHT22;13444;50.562;7.262;2022-08-19T14:53:40;29.20;98.20
25550;DHT22;13444;50.562;7.262;2022-08-19T14:56:11;29.20;97.60
25550;DHT22;13444;50.562;7.262;2022-08-19T14:58:38;29.30;97.80
25550;DHT22;13444;50.562;7.262;2022-08-19T15:01:06;29.20;97.30
25550;DHT22;13444;50.562;7.262;2022-08-19T15:03:32;29.10;97.10
25550;DHT22;13444;50.562;7.262;2022-08-19T15:05:59;29.20;97.80
25550;DHT22;13444;50.562;7.262;2022-08-19T15:08:27;29.20;98.10
25550;DHT22;13444;50.562;7.262;2022-08-19T15:10:53;29.20;98.50
25550;DHT22;13444;50.562;7.262;2022-08-19T15:13:18;29.10;98.00
25550;DHT22;13444;50.562;7.262;2022-08-19T15:15:44;29.10;98.20
25550;DHT22;13444;50.562;7.262;2022-08-19T15:18:10;29.00;98.20
25550;DHT22;13444;50.562;7.262;2022-08-19T15:20:36;28.80;98.20
25550;DHT22;13444;50.562;7.262;2022-08-19T15:23:02;28.70;98.00
25550;DHT22;13444;50.562;7.262;2022-08-19T15:25:28;28.60;98.50
25550;DHT22;13444;50.562;7.262;2022-08-19T15:27:54;28.60;98.50
25550;DHT22;13444;50.562;7.262;2022-08-19T15:30:23;28.60;98.90
25550;DHT22;13444;50.562;7.262;2022-08-19T15:32:50;28.60;98.90
25550;DHT22;13444;50.562;7.262;2022-08-19T15:35:18;28.70;98.90
25550;DHT22;13444;50.562;7.262;2022-08-19T15:37:47;28.60;98.90
25550;DHT22;13444;50.562;7.262;2022-08-19T15:40:13;28.40;98.90
25550;DHT22;13444;50.562;7.262;2022-08-19T15:42:38;28.40;99.50